sensor_id;sensor_type;location;lat;lon;timestamp;pressure;altitude;pressure_sealevel;temperature;humidity
56944;BME280;42848;42.524;12.052;2022-11-20T00:00:54;95675.16;;;7.99;100.00
56944;BME280;42848;42.524;12.052;2022-11-20T00:03:20;95679.22;;;7.85;100.00
56944;BME280;42848;42.524;12.052;2022-11-20T00:05:46;95691.25;;;7.96;100.00
56944;BME280;42848;42.524;12.052;2022-11-20T00:08:12;95697.56;;;8.00;100.00
56944;BME280;42848;42.524;12.052;2022-11-20T00:10:41;95689.25;;;8.35;100.00
56944;BME280;42848;42.524;12.052;2022-11-20T00:13:07;95691.25;;;7.96;100.00
56944;BME280;42848;42.524;12.052;2022-11-20T00:15:33;95684.78;;;8.09;100.00
56944;BME280;42848;42.524;12.052;2022-11-20T00:17:59;95691.00;;;8.10;100.00
56944;BME280;42848;42.524;12.052;2022-11-20T00:20:25;95688.06;;;7.94;100.00
56944;BME280;42848;42.524;12.052;2022-11-20T00:22:51;95691.78;;;8.10;100.00
56944;BME280;42848;42.524;12.052;2022-11-20T00:25:16;95695.59;;;8.09;100.00
56944;BME280;42848;42.524;12.052;2022-11-20T00:27:42;95696.66;;;7.96;100.00
56944;BME280;42848;42.524;12.052;2022-11-20T00:30:08;95705.88;;;7.95;100.00
56944;BME280;42848;42.524;12.052;2022-11-20T00:32:34;95714.47;;;7.97;100.00
56944;BME280;42848;42.524;12.052;2022-11-20T00:35:00;95708.66;;;8.07;100.00
56944;BME280;42848;42.524;12.052;2022-11-20T00:37:26;95721.66;;;8.14;100.00
56944;BME280;42848;42.524;12.052;2022-11-20T00:39:51;95709.78;;;8.06;100.00
56944;BME280;42848;42.524;12.052;2022-11-20T00:42:17;95704.56;;;8.01;100.00
56944;BME280;42848;42.524;12.052;2022-11-20T00:44:43;95706.47;;;8.01;100.00
56944;BME280;42848;42.524;12.052;2022-11-20T00:47:08;95694.47;;;8.10;100.00
56944;BME280;42848;42.524;12.052;2022-11-20T00:49:34;95689.94;;;8.02;100.00
56944;BME280;42848;42.524;12.052;2022-11-20T00:52:00;95696.13;;;8.03;100.00
56944;BME280;42848;42.524;12.052;2022-11-20T00:54:25;95694.94;;;7.91;100.00
56944;BME280;42848;42.524;12.052;2022-11-20T00:56:54;95701.41;;;7.99;100.00
56944;BME280;42848;42.524;12.052;2022-11-20T00:59:19;95705.88;;;7.95;100.00
56944;BME280;42848;42.524;12.052;2022-11-20T01:01:45;95705.97;;;8.07;100.00
56944;BME280;42848;42.524;12.052;2022-11-20T01:04:11;95709.97;;;8.01;100.00
56944;BME280;42848;42.524;12.052;2022-11-20T01:06:38;95709.69;;;7.94;100.00
56944;BME280;42848;42.524;12.052;2022-11-20T01:09:11;95722.06;;;7.95;100.00
56944;BME280;42848;42.524;12.052;2022-11-20T01:11:43;95725.06;;;8.02;100.00
56944;BME280;42848;42.524;12.052;2022-11-20T01:14:18;95729.88;;;7.96;100.00
56944;BME280;42848;42.524;12.052;2022-11-20T01:16:47;95724.31;;;7.93;100.00
56944;BME280;42848;42.524;12.052;2022-11-20T01:19:19;95734.22;;;7.89;100.00
56944;BME280;42848;42.524;12.052;2022-11-20T01:21:49;95727.13;;;8.05;100.00
56944;BME280;42848;42.524;12.052;2022-11-20T01:24:17;95741.09;;;8.07;100.00
56944;BME280;42848;42.524;12.052;2022-11-20T01:26:44;95735.03;;;8.10;100.00
56944;BME280;42848;42.524;12.052;2022-11-20T01:29:15;95740.16;;;8.03;100.00
56944;BME280;42848;42.524;12.052;2022-11-20T01:31:42;95739.13;;;8.16;100.00
56944;BME280;42848;42.524;12.052;2022-11-20T01:34:13;95749.16;;;8.16;100.00
56944;BME280;42848;42.524;12.052;2022-11-20T01:36:40;95750.59;;;8.13;100.00
56944;BME280;42848;42.524;12.052;2022-11-20T01:39:16;95756.28;;;8.20;100.00
56944;BME280;42848;42.524;12.052;2022-11-20T01:41:42;95752.06;;;8.32;100.00
56944;BME280;42848;42.524;12.052;2022-11-20T01:47:08;95758.88;;;8.38;100.00
56944;BME280;42848;42.524;12.052;2022-11-20T01:49:40;95752.31;;;8.18;100.00
56944;BME280;42848;42.524;12.052;2022-11-20T01:52:16;95754.69;;;8.19;100.00
56944;BME280;42848;42.524;12.052;2022-11-20T01:57:34;95748.78;;;8.26;100.00
56944;BME280;42848;42.524;12.052;2022-11-20T02:00:12;95747.88;;;8.13;100.00
56944;BME280;42848;42.524;12.052;2022-11-20T02:02:41;95746.31;;;8.12;100.00
56944;BME280;42848;42.524;12.052;2022-11-20T02:05:56;95751.25;;;8.10;100.00
56944;BME280;42848;42.524;12.052;2022-11-20T02:08:04;95754.41;;;8.12;100.00
56944;BME280;42848;42.524;12.052;2022-11-20T02:10:31;95750.19;;;8.03;100.00
56944;BME280;42848;42.524;12.052;2022-11-20T02:12:57;95751.53;;;8.17;100.00
56944;BME280;42848;42.524;12.052;2022-11-20T02:15:41;95754.22;;;8.17;100.00
56944;BME280;42848;42.524;12.052;2022-11-20T02:18:09;95755.75;;;8.06;100.00
56944;BME280;42848;42.524;12.052;2022-11-20T02:20:35;95752.66;;;8.16;100.00
56944;BME280;42848;42.524;12.052;2022-11-20T02:24:06;95757.59;;;8.14;100.00
56944;BME280;42848;42.524;12.052;2022-11-20T02:26:08;95754.41;;;8.12;100.00
56944;BME280;42848;42.524;12.052;2022-11-20T02:28:36;95751.06;;;8.15;100.00
56944;BME280;42848;42.524;12.052;2022-11-20T02:31:01;95756.00;;;8.13;100.00
56944;BME280;42848;42.524;12.052;2022-11-20T02:33:27;95745.50;;;8.12;100.00
56944;BME280;42848;42.524;12.052;2022-11-20T02:35:53;95744.38;;;8.13;100.00
56944;BME280;42848;42.524;12.052;2022-11-20T02:38:19;95735.44;;;8.21;100.00
56944;BME280;42848;42.524;12.052;2022-11-20T02:40:45;95727.88;;;8.14;100.00
56944;BME280;42848;42.524;12.052;2022-11-20T02:43:10;95726.75;;;8.15;100.00
56944;BME280;42848;42.524;12.052;2022-11-20T02:45:36;95717.22;;;8.09;100.00
56944;BME280;42848;42.524;12.052;2022-11-20T02:48:02;95728.56;;;8.03;100.00
56944;BME280;42848;42.524;12.052;2022-11-20T02:50:27;95721.97;;;8.12;100.00
56944;BME280;42848;42.524;12.052;2022-11-20T02:52:53;95728.03;;;8.09;100.00
56944;BME280;42848;42.524;12.052;2022-11-20T02:55:19;95733.91;;;8.11;100.00
56944;BME280;42848;42.524;12.052;2022-11-20T02:57:44;95739.78;;;8.13;100.00
56944;BME280;42848;42.524;12.052;2022-11-20T03:00:11;95726.75;;;8.15;100.00
56944;BME280;42848;42.524;12.052;2022-11-20T03:02:36;95733.84;;;7.99;100.00
56944;BME280;42848;42.524;12.052;2022-11-20T03:05:02;95735.19;;;8.14;100.00
56944;BME280;42848;42.524;12.052;2022-11-20T03:07:28;95733.31;;;8.06;100.00
56944;BME280;42848;42.524;12.052;2022-11-20T03:09:54;95731.09;;;8.08;100.00
56944;BME280;42848;42.524;12.052;2022-11-20T03:12:19;95725.34;;;8.09;100.00
56944;BME280;42848;42.524;12.052;2022-11-20T03:14:45;95729.84;;;8.05;100.00
56944;BME280;42848;42.524;12.052;2022-11-20T03:17:11;95724.59;;;8.00;100.00
56944;BME280;42848;42.524;12.052;2022-11-20T03:19:36;95717.41;;;8.04;100.00
56944;BME280;42848;42.524;12.052;2022-11-20T03:22:02;95724.28;;;8.02;100.00
56944;BME280;42848;42.524;12.052;2022-11-20T03:24:28;95722.34;;;8.02;100.00
56944;BME280;42848;42.524;12.052;2022-11-20T03:26:53;95722.81;;;8.04;100.00
56944;BME280;42848;42.524;12.052;2022-11-20T03:29:19;95720.78;;;8.01;100.00
56944;BME280;42848;42.524;12.052;2022-11-20T03:31:45;95717.41;;;8.04;100.00
56944;BME280;42848;42.524;12.052;2022-11-20T03:34:11;95720.97;;;7.96;100.00
56944;BME280;42848;42.524;12.052;2022-11-20T03:36:42;95720.50;;;7.94;100.00
56944;BME280;42848;42.524;12.052;2022-11-20T03:39:08;95722.75;;;7.92;100.00
56944;BME280;42848;42.524;12.052;2022-11-20T03:41:38;95723.47;;;8.01;100.00
56944;BME280;42848;42.524;12.052;2022-11-20T03:44:06;95729.63;;;8.10;100.00
56944;BME280;42848;42.524;12.052;2022-11-20T03:46:33;95728.97;;;8.13;100.00
56944;BME280;42848;42.524;12.052;2022-11-20T03:48:59;95729.78;;;8.14;100.00
56944;BME280;42848;42.524;12.052;2022-11-20T03:51:30;95740.31;;;8.07;100.00
56944;BME280;42848;42.524;12.052;2022-11-20T03:53:58;95744.66;;;8.20;100.00
56944;BME280;42848;42.524;12.052;2022-11-20T03:56:26;95743.94;;;8.11;100.00
56944;BME280;42848;42.524;12.052;2022-11-20T03:58:52;95744.78;;;8.03;100.00
56944;BME280;42848;42.524;12.052;2022-11-20T04:01:22;95739.69;;;8.01;100.00
56944;BME280;42848;42.524;12.052;2022-11-20T04:03:48;95738.91;;;8.01;100.00
56944;BME280;42848;42.524;12.052;2022-11-20T04:06:20;95741.09;;;8.07;100.00
56944;BME280;42848;42.524;12.052;2022-11-20T04:08:46;95737.94;;;8.05;100.00
56944;BME280;42848;42.524;12.052;2022-11-20T04:11:14;95741.59;;;8.01;100.00
56944;BME280;42848;42.524;12.052;2022-11-20T04:13:41;95741.31;;;7.93;100.00
56944;BME280;42848;42.524;12.052;2022-11-20T04:16:09;95741.88;;;8.08;100.00
56944;BME280;42848;42.524;12.052;2022-11-20T04:18:35;95738.78;;;7.97;100.00
56944;BME280;42848;42.524;12.052;2022-11-20T04:21:02;95738.81;;;7.88;100.00
56944;BME280;42848;42.524;12.052;2022-11-20T04:23:28;95740.00;;;7.79;100.00
56944;BME280;42848;42.524;12.052;2022-11-20T04:25:54;95737.75;;;7.81;100.00
56944;BME280;42848;42.524;12.052;2022-11-20T04:28:20;95741.38;;;7.85;100.00
56944;BME280;42848;42.524;12.052;2022-11-20T04:30:46;95743.28;;;7.84;100.00
56944;BME280;42848;42.524;12.052;2022-11-20T04:33:11;95737.16;;;7.66;100.00
56944;BME280;42848;42.524;12.052;2022-11-20T04:35:37;95742.88;;;7.74;100.00
56944;BME280;42848;42.524;12.052;2022-11-20T04:38:04;95735.97;;;7.55;100.00
56944;BME280;42848;42.524;12.052;2022-11-20T04:40:30;95738.00;;;7.58;100.00
56944;BME280;42848;42.524;12.052;2022-11-20T04:42:56;95739.91;;;7.58;100.00
56944;BME280;42848;42.524;12.052;2022-11-20T04:45:22;95748.53;;;7.51;100.00
56944;BME280;42848;42.524;12.052;2022-11-20T04:47:48;95739.47;;;7.47;100.00
56944;BME280;42848;42.524;12.052;2022-11-20T04:50:14;95745.81;;;7.60;100.00
56944;BME280;42848;42.524;12.052;2022-11-20T04:52:40;95744.16;;;7.67;100.00
56944;BME280;42848;42.524;12.052;2022-11-20T04:55:06;95747.13;;;7.45;100.00
56944;BME280;42848;42.524;12.052;2022-11-20T04:57:32;95752.28;;;7.59;100.00
56944;BME280;42848;42.524;12.052;2022-11-20T04:59:58;95765.53;;;7.52;100.00
56944;BME280;42848;42.524;12.052;2022-11-20T05:02:23;95774.91;;;7.46;100.00
56944;BME280;42848;42.524;12.052;2022-11-20T05:04:49;95777.75;;;7.49;100.00
56944;BME280;42848;42.524;12.052;2022-11-20T05:07:15;95772.81;;;7.60;100.00
56944;BME280;42848;42.524;12.052;2022-11-20T05:09:41;95784.56;;;7.55;100.00
56944;BME280;42848;42.524;12.052;2022-11-20T05:12:09;95782.16;;;7.62;100.00
56944;BME280;42848;42.524;12.052;2022-11-20T05:14:35;95783.13;;;7.58;100.00
56944;BME280;42848;42.524;12.052;2022-11-20T05:17:01;95776.16;;;7.48;100.00
56944;BME280;42848;42.524;12.052;2022-11-20T05:19:26;95781.97;;;7.67;100.00
56944;BME280;42848;42.524;12.052;2022-11-20T05:21:52;95791.72;;;7.60;100.00
56944;BME280;42848;42.524;12.052;2022-11-20T05:24:18;95788.50;;;7.66;100.00
56944;BME280;42848;42.524;12.052;2022-11-20T05:26:43;95795.44;;;7.76;100.00
56944;BME280;42848;42.524;12.052;2022-11-20T05:29:11;95801.19;;;8.04;100.00
56944;BME280;42848;42.524;12.052;2022-11-20T05:31:39;95806.75;;;8.08;100.00
56944;BME280;42848;42.524;12.052;2022-11-20T05:34:05;95817.84;;;8.15;100.00
56944;BME280;42848;42.524;12.052;2022-11-20T05:36:31;95810.63;;;8.27;100.00
56944;BME280;42848;42.524;12.052;2022-11-20T05:38:56;95813.19;;;8.24;100.00
56944;BME280;42848;42.524;12.052;2022-11-20T05:41:22;95817.50;;;7.87;100.00
56944;BME280;42848;42.524;12.052;2022-11-20T05:43:49;95815.47;;;7.75;100.00
56944;BME280;42848;42.524;12.052;2022-11-20T05:46:18;95818.19;;;7.66;100.00
56944;BME280;42848;42.524;12.052;2022-11-20T05:48:44;95826.81;;;7.60;100.00
56944;BME280;42848;42.524;12.052;2022-11-20T05:51:12;95824.75;;;7.57;100.00
56944;BME280;42848;42.524;12.052;2022-11-20T05:53:38;95818.84;;;7.63;100.00
56944;BME280;42848;42.524;12.052;2022-11-20T05:56:10;95824.50;;;7.41;100.00
56944;BME280;42848;42.524;12.052;2022-11-20T05:58:37;95820.66;;;7.51;100.00
56944;BME280;42848;42.524;12.052;2022-11-20T06:01:04;95826.53;;;7.44;100.00
56944;BME280;42848;42.524;12.052;2022-11-20T06:03:30;95830.34;;;7.52;100.00
56944;BME280;42848;42.524;12.052;2022-11-20T06:05:58;95813.72;;;7.24;100.00
56944;BME280;42848;42.524;12.052;2022-11-20T06:08:24;95825.44;;;7.28;100.00
56944;BME280;42848;42.524;12.052;2022-11-20T06:10:50;95827.38;;;7.27;100.00
56944;BME280;42848;42.524;12.052;2022-11-20T06:13:15;95826.22;;;7.37;100.00
56944;BME280;42848;42.524;12.052;2022-11-20T06:15:41;95824.00;;;7.39;100.00
56944;BME280;42848;42.524;12.052;2022-11-20T06:18:07;95832.59;;;7.32;100.00
56944;BME280;42848;42.524;12.052;2022-11-20T06:20:32;95817.00;;;7.38;100.00
56944;BME280;42848;42.524;12.052;2022-11-20T06:22:58;95822.44;;;7.29;100.00
56944;BME280;42848;42.524;12.052;2022-11-20T06:25:24;95826.88;;;7.34;100.00
56944;BME280;42848;42.524;12.052;2022-11-20T06:27:49;95836.44;;;7.23;100.00
56944;BME280;42848;42.524;12.052;2022-11-20T06:30:15;95816.72;;;7.31;100.00
56944;BME280;42848;42.524;12.052;2022-11-20T06:32:41;95838.16;;;7.27;100.00
56944;BME280;42848;42.524;12.052;2022-11-20T06:35:07;95831.16;;;7.35;100.00
56944;BME280;42848;42.524;12.052;2022-11-20T06:37:33;95831.97;;;7.27;100.00
56944;BME280;42848;42.524;12.052;2022-11-20T06:39:58;95837.06;;;7.20;100.00
56944;BME280;42848;42.524;12.052;2022-11-20T06:42:24;95836.25;;;7.19;100.00
56944;BME280;42848;42.524;12.052;2022-11-20T06:44:50;95840.53;;;7.29;100.00
56944;BME280;42848;42.524;12.052;2022-11-20T06:47:15;95841.50;;;7.24;100.00
56944;BME280;42848;42.524;12.052;2022-11-20T06:49:41;95841.16;;;7.43;100.00
56944;BME280;42848;42.524;12.052;2022-11-20T06:52:07;95851.66;;;7.36;100.00
56944;BME280;42848;42.524;12.052;2022-11-20T06:54:32;95848.72;;;7.58;100.00
56944;BME280;42848;42.524;12.052;2022-11-20T06:56:58;95845.22;;;7.66;100.00
56944;BME280;42848;42.524;12.052;2022-11-20T06:59:24;95844.28;;;7.62;100.00
56944;BME280;42848;42.524;12.052;2022-11-20T07:01:49;95848.13;;;7.44;100.00
56944;BME280;42848;42.524;12.052;2022-11-20T07:04:15;95847.47;;;7.56;100.00
56944;BME280;42848;42.524;12.052;2022-11-20T07:06:41;95844.00;;;7.47;100.00
56944;BME280;42848;42.524;12.052;2022-11-20T07:09:06;95843.06;;;7.51;100.00
56944;BME280;42848;42.524;12.052;2022-11-20T07:11:32;95848.75;;;7.50;100.00
56944;BME280;42848;42.524;12.052;2022-11-20T07:13:57;95852.53;;;7.57;100.00
56944;BME280;42848;42.524;12.052;2022-11-20T07:16:23;95858.59;;;7.63;100.00
56944;BME280;42848;42.524;12.052;2022-11-20T07:18:49;95865.69;;;7.76;100.00
56944;BME280;42848;42.524;12.052;2022-11-20T07:21:15;95855.66;;;7.77;100.00
56944;BME280;42848;42.524;12.052;2022-11-20T07:23:40;95858.06;;;7.78;100.00
56944;BME280;42848;42.524;12.052;2022-11-20T07:26:08;95865.19;;;7.83;100.00
56944;BME280;42848;42.524;12.052;2022-11-20T07:28:35;95871.34;;;7.92;100.00
56944;BME280;42848;42.524;12.052;2022-11-20T07:31:01;95870.53;;;8.00;100.00
56944;BME280;42848;42.524;12.052;2022-11-20T07:33:27;95876.88;;;8.04;100.00
56944;BME280;42848;42.524;12.052;2022-11-20T07:35:52;95882.56;;;8.11;100.00
56944;BME280;42848;42.524;12.052;2022-11-20T07:38:18;95890.53;;;8.16;100.00
56944;BME280;42848;42.524;12.052;2022-11-20T07:40:44;95892.56;;;8.19;100.00
56944;BME280;42848;42.524;12.052;2022-11-20T07:43:09;95889.19;;;8.22;100.00
56944;BME280;42848;42.524;12.052;2022-11-20T07:45:35;95904.47;;;8.36;100.00
56944;BME280;42848;42.524;12.052;2022-11-20T07:48:01;95909.88;;;8.36;100.00
56944;BME280;42848;42.524;12.052;2022-11-20T07:50:27;95916.19;;;8.40;100.00
56944;BME280;42848;42.524;12.052;2022-11-20T07:53:00;95923.34;;;8.44;100.00
56944;BME280;42848;42.524;12.052;2022-11-20T07:55:26;95914.25;;;8.49;100.00
56944;BME280;42848;42.524;12.052;2022-11-20T07:57:58;95921.53;;;8.57;100.00
56944;BME280;42848;42.524;12.052;2022-11-20T08:00:24;95919.28;;;8.59;100.00
56944;BME280;42848;42.524;12.052;2022-11-20T08:02:50;95935.50;;;8.59;100.00
56944;BME280;42848;42.524;12.052;2022-11-20T08:05:16;95934.88;;;8.62;100.00
56944;BME280;42848;42.524;12.052;2022-11-20T08:07:43;95941.22;;;8.66;100.00
56944;BME280;42848;42.524;12.052;2022-11-20T08:10:11;95953.91;;;8.74;100.00
56944;BME280;42848;42.524;12.052;2022-11-20T08:12:47;95949.16;;;8.71;100.00
56944;BME280;42848;42.524;12.052;2022-11-20T08:15:31;95950.34;;;8.82;100.00
56944;BME280;42848;42.524;12.052;2022-11-20T08:18:06;95950.53;;;8.77;100.00
56944;BME280;42848;42.524;12.052;2022-11-20T08:20:31;95950.13;;;8.96;100.00
56944;BME280;42848;42.524;12.052;2022-11-20T08:22:59;95947.47;;;8.88;100.00
56944;BME280;42848;42.524;12.052;2022-11-20T08:25:26;95954.94;;;8.91;100.00
56944;BME280;42848;42.524;12.052;2022-11-20T08:27:51;95956.97;;;8.94;100.00
56944;BME280;42848;42.524;12.052;2022-11-20T08:30:17;95956.47;;;9.00;100.00
56944;BME280;42848;42.524;12.052;2022-11-20T08:32:43;95952.69;;;8.93;100.00
56944;BME280;42848;42.524;12.052;2022-11-20T08:35:08;95956.41;;;9.09;100.00
56944;BME280;42848;42.524;12.052;2022-11-20T08:37:34;95953.38;;;9.10;100.00
56944;BME280;42848;42.524;12.052;2022-11-20T08:39:59;95964.81;;;9.16;100.00
56944;BME280;42848;42.524;12.052;2022-11-20T08:42:25;95955.34;;;9.22;100.00
56944;BME280;42848;42.524;12.052;2022-11-20T08:44:51;95978.94;;;9.22;100.00
56944;BME280;42848;42.524;12.052;2022-11-20T08:47:16;95964.03;;;9.16;100.00
56944;BME280;42848;42.524;12.052;2022-11-20T08:49:42;95975.75;;;9.20;100.00
56944;BME280;42848;42.524;12.052;2022-11-20T08:52:08;95972.16;;;9.16;100.00
56944;BME280;42848;42.524;12.052;2022-11-20T08:54:33;95982.19;;;9.15;100.00
56944;BME280;42848;42.524;12.052;2022-11-20T08:56:59;95978.59;;;9.23;100.00
56944;BME280;42848;42.524;12.052;2022-11-20T08:59:24;95982.97;;;9.16;100.00
56944;BME280;42848;42.524;12.052;2022-11-20T09:01:50;95988.34;;;9.24;100.00
56944;BME280;42848;42.524;12.052;2022-11-20T09:04:16;95985.22;;;9.34;100.00
56944;BME280;42848;42.524;12.052;2022-11-20T09:06:41;95983.44;;;9.38;100.00
56944;BME280;42848;42.524;12.052;2022-11-20T09:09:07;95978.22;;;9.33;100.00
56944;BME280;42848;42.524;12.052;2022-11-20T09:11:34;95983.44;;;9.38;100.00
56944;BME280;42848;42.524;12.052;2022-11-20T09:14:00;95985.41;;;9.29;100.00
56944;BME280;42848;42.524;12.052;2022-11-20T09:16:28;95990.16;;;9.32;100.00
56944;BME280;42848;42.524;12.052;2022-11-20T09:18:53;95983.97;;;9.32;100.00
56944;BME280;42848;42.524;12.052;2022-11-20T09:21:19;95989.00;;;9.42;100.00
56944;BME280;42848;42.524;12.052;2022-11-20T09:23:44;95981.41;;;9.35;100.00
56944;BME280;42848;42.524;12.052;2022-11-20T09:26:12;95978.69;;;9.35;100.00
56944;BME280;42848;42.524;12.052;2022-11-20T09:28:39;95980.28;;;9.36;100.00
56944;BME280;42848;42.524;12.052;2022-11-20T09:31:11;96002.00;;;9.28;100.00
56944;BME280;42848;42.524;12.052;2022-11-20T09:33:39;95971.69;;;9.34;100.00
56944;BME280;42848;42.524;12.052;2022-11-20T09:36:05;95975.53;;;9.33;100.00
56944;BME280;42848;42.524;12.052;2022-11-20T09:38:30;95956.63;;;9.46;100.00
56944;BME280;42848;42.524;12.052;2022-11-20T09:41:06;95973.94;;;9.53;100.00
56944;BME280;42848;42.524;12.052;2022-11-20T09:46:55;95961.81;;;9.51;100.00
56944;BME280;42848;42.524;12.052;2022-11-20T09:54:20;95966.88;;;9.61;100.00
56944;BME280;42848;42.524;12.052;2022-11-20T09:56:53;95968.22;;;9.67;100.00
56944;BME280;42848;42.524;12.052;2022-11-20T10:01:47;95973.06;;;9.61;100.00
56944;BME280;42848;42.524;12.052;2022-11-20T10:04:17;95984.22;;;9.60;100.00
56944;BME280;42848;42.524;12.052;2022-11-20T10:07:02;95982.16;;;9.78;100.00
56944;BME280;42848;42.524;12.052;2022-11-20T10:09:36;95981.13;;;9.70;100.00
56944;BME280;42848;42.524;12.052;2022-11-20T10:12:19;95988.38;;;9.78;100.00
56944;BME280;42848;42.524;12.052;2022-11-20T10:20:46;95963.59;;;9.88;100.00
56944;BME280;42848;42.524;12.052;2022-11-20T10:23:21;95970.69;;;9.93;100.00
56944;BME280;42848;42.524;12.052;2022-11-20T10:31:51;95972.16;;;9.90;100.00
56944;BME280;42848;42.524;12.052;2022-11-20T10:34:30;95958.28;;;9.92;100.00
56944;BME280;42848;42.524;12.052;2022-11-20T10:37:27;95969.50;;;10.03;100.00
56944;BME280;42848;42.524;12.052;2022-11-20T10:42:47;95963.28;;;10.02;100.00
56944;BME280;42848;42.524;12.052;2022-11-20T10:48:15;95974.75;;;10.20;100.00
56944;BME280;42848;42.524;12.052;2022-11-20T10:54:11;95953.72;;;10.17;100.00
56944;BME280;42848;42.524;12.052;2022-11-20T10:56:50;95949.88;;;10.18;100.00
56944;BME280;42848;42.524;12.052;2022-11-20T10:59:28;95952.38;;;10.23;100.00
56944;BME280;42848;42.524;12.052;2022-11-20T11:01:56;95960.47;;;10.11;100.00
56944;BME280;42848;42.524;12.052;2022-11-20T11:06:58;95948.66;;;10.15;100.00
56944;BME280;42848;42.524;12.052;2022-11-20T11:09:35;95962.75;;;10.09;100.00
56944;BME280;42848;42.524;12.052;2022-11-20T11:12:07;95953.13;;;10.11;100.00
56944;BME280;42848;42.524;12.052;2022-11-20T11:14:45;95953.69;;;10.05;100.00
56944;BME280;42848;42.524;12.052;2022-11-20T11:17:30;95963.88;;;10.20;100.00
56944;BME280;42848;42.524;12.052;2022-11-20T11:20:23;95964.06;;;10.03;100.00
56944;BME280;42848;42.524;12.052;2022-11-20T11:22:50;95964.75;;;10.00;100.00
56944;BME280;42848;42.524;12.052;2022-11-20T11:27:57;95959.25;;;10.08;100.00
56944;BME280;42848;42.524;12.052;2022-11-20T11:30:25;95963.38;;;10.06;100.00
56944;BME280;42848;42.524;12.052;2022-11-20T11:33:05;95978.41;;;10.03;100.00
56944;BME280;42848;42.524;12.052;2022-11-20T11:35:32;95989.34;;;9.94;100.00
56944;BME280;42848;42.524;12.052;2022-11-20T11:38:12;95974.66;;;9.95;100.00
56944;BME280;42848;42.524;12.052;2022-11-20T11:40:40;95973.59;;;10.09;100.00
56944;BME280;42848;42.524;12.052;2022-11-20T11:43:15;95974.50;;;10.13;100.00
56944;BME280;42848;42.524;12.052;2022-11-20T11:46:02;95988.13;;;10.25;100.00
56944;BME280;42848;42.524;12.052;2022-11-20T11:48:30;95987.16;;;10.21;100.00
56944;BME280;42848;42.524;12.052;2022-11-20T11:50:56;95977.94;;;10.22;100.00
56944;BME280;42848;42.524;12.052;2022-11-20T11:53:23;95980.31;;;10.23;100.00
56944;BME280;42848;42.524;12.052;2022-11-20T11:56:02;95980.00;;;10.25;100.00
56944;BME280;42848;42.524;12.052;2022-11-20T11:58:43;95975.63;;;10.45;100.00
56944;BME280;42848;42.524;12.052;2022-11-20T12:01:29;95976.38;;;10.33;100.00
56944;BME280;42848;42.524;12.052;2022-11-20T12:04:18;95992.44;;;10.38;100.00
56944;BME280;42848;42.524;12.052;2022-11-20T12:06:50;95982.03;;;10.28;100.00
56944;BME280;42848;42.524;12.052;2022-11-20T12:09:18;95996.03;;;10.30;100.00
56944;BME280;42848;42.524;12.052;2022-11-20T12:11:53;95971.28;;;10.32;100.00
56944;BME280;42848;42.524;12.052;2022-11-20T12:14:39;95989.63;;;10.35;100.00
56944;BME280;42848;42.524;12.052;2022-11-20T12:17:09;95971.28;;;10.32;100.00
56944;BME280;42848;42.524;12.052;2022-11-20T12:19:36;95959.44;;;10.36;100.00
56944;BME280;42848;42.524;12.052;2022-11-20T12:25:24;95966.34;;;10.46;100.00
56944;BME280;42848;42.524;12.052;2022-11-20T12:28:24;95968.47;;;10.40;100.00
56944;BME280;42848;42.524;12.052;2022-11-20T12:31:03;95966.34;;;10.34;100.00
56944;BME280;42848;42.524;12.052;2022-11-20T12:37:31;95957.41;;;10.58;100.00
56944;BME280;42848;42.524;12.052;2022-11-20T12:39:35;95972.38;;;10.64;100.00
56944;BME280;42848;42.524;12.052;2022-11-20T12:50:31;95957.56;;;10.61;100.00
56944;BME280;42848;42.524;12.052;2022-11-20T13:06:51;95963.53;;;10.54;100.00
56944;BME280;42848;42.524;12.052;2022-11-20T13:09:19;95952.44;;;10.60;100.00
56944;BME280;42848;42.524;12.052;2022-11-20T13:12:06;95964.09;;;10.60;100.00
56944;BME280;42848;42.524;12.052;2022-11-20T13:15:00;95953.81;;;10.66;100.00
56944;BME280;42848;42.524;12.052;2022-11-20T13:19:55;95951.34;;;10.61;100.00
56944;BME280;42848;42.524;12.052;2022-11-20T13:25:22;95938.44;;;10.70;100.00
56944;BME280;42848;42.524;12.052;2022-11-20T13:27:50;95964.56;;;10.74;100.00
56944;BME280;42848;42.524;12.052;2022-11-20T13:30:19;95946.00;;;10.76;100.00
56944;BME280;42848;42.524;12.052;2022-11-20T13:33:09;95950.28;;;10.77;100.00
56944;BME280;42848;42.524;12.052;2022-11-20T13:35:57;95947.28;;;10.79;100.00
56944;BME280;42848;42.524;12.052;2022-11-20T13:38:23;95936.84;;;10.69;100.00
56944;BME280;42848;42.524;12.052;2022-11-20T13:40:57;95937.06;;;10.76;100.00
56944;BME280;42848;42.524;12.052;2022-11-20T13:43:27;95936.41;;;10.79;100.00
56944;BME280;42848;42.524;12.052;2022-11-20T13:46:02;95942.94;;;10.78;100.00
56944;BME280;42848;42.524;12.052;2022-11-20T13:48:49;95932.97;;;10.94;100.00
56944;BME280;42848;42.524;12.052;2022-11-20T13:51:32;95946.13;;;10.80;100.00
56944;BME280;42848;42.524;12.052;2022-11-20T13:54:34;95942.72;;;10.83;100.00
56944;BME280;42848;42.524;12.052;2022-11-20T14:00:11;95940.22;;;11.02;100.00
56944;BME280;42848;42.524;12.052;2022-11-20T14:02:37;95941.31;;;11.14;100.00
56944;BME280;42848;42.524;12.052;2022-11-20T14:05:03;95950.25;;;11.14;100.00
56944;BME280;42848;42.524;12.052;2022-11-20T14:07:39;95947.69;;;10.93;100.00
56944;BME280;42848;42.524;12.052;2022-11-20T14:10:18;95946.22;;;10.96;100.00
56944;BME280;42848;42.524;12.052;2022-11-20T14:12:44;95935.16;;;10.89;100.00
56944;BME280;42848;42.524;12.052;2022-11-20T14:15:25;95934.38;;;10.88;100.00
56944;BME280;42848;42.524;12.052;2022-11-20T14:17:51;95943.63;;;10.87;100.00